Time;durP1;ratioP1;P1;durP2;ratioP2;P2;SDS_P1;SDS_P2;PMS_P1;PMS_P2;Temp;Humidity;BMP_temperature;BMP_pressure;BME280_temperature;BME280_humidity;BME280_pressure;Samples;Min_cycle;Max_cycle;Signal;HPM_P1;HPM_P2
2021/04/27 00:00:47;;;;;;;7.40;2.13;;;7.40;54.50;;;;;;5049502;28;20406;-66
2021/04/27 00:03:14;;;;;;;5.67;1.80;;;7.40;54.40;;;;;;5049222;28;20052;-66
2021/04/27 00:05:41;;;;;;;4.80;1.87;;;7.30;54.10;;;;;;5051704;28;20048;-66
2021/04/27 00:08:07;;;;;;;3.43;1.63;;;7.10;54.30;;;;;;5051539;28;20087;-66
2021/04/27 00:10:34;;;;;;;;;;;7.20;54.60;;;;;;5049566;28;20167;-66
2021/04/27 00:13:04;;;;;;;6.60;2.13;;;7.30;54.50;;;;;;5048687;28;19931;-66
2021/04/27 00:15:32;;;;;;;5.63;1.77;;;7.30;54.40;;;;;;5041322;28;20079;-66
2021/04/27 00:17:59;;;;;;;5.33;1.70;;;7.30;54.70;;;;;;5039811;28;20102;-66
2021/04/27 00:20:26;;;;;;;5.63;1.50;;;7.20;54.50;;;;;;5042282;28;21029;-66
2021/04/27 00:22:54;;;;;;;4.73;1.43;;;7.00;54.50;;;;;;5040672;28;20539;-66
2021/04/27 00:25:21;;;;;;;5.10;1.70;;;7.10;54.60;;;;;;5042942;28;20053;-66
2021/04/27 00:27:50;;;;;;;4.63;2.07;;;7.20;54.70;;;;;;5041882;28;20059;-66
2021/04/27 00:30:19;;;;;;;5.37;1.60;;;7.10;54.40;;;;;;5039870;28;20056;-66
2021/04/27 00:32:46;;;;;;;6.87;2.20;;;7.10;54.60;;;;;;5049821;28;20051;-66
2021/04/27 00:35:14;;;;;;;6.23;1.60;;;7.10;54.80;;;;;;5047099;28;20578;-66
2021/04/27 00:37:41;;;;;;;4.57;1.70;;;7.00;54.90;;;;;;5048846;28;20131;-66
2021/04/27 00:40:11;;;;;;;4.57;1.53;;;7.00;54.80;;;;;;5051438;28;20461;-66
2021/04/27 00:42:41;;;;;;;3.63;1.53;;;7.00;55.00;;;;;;5050254;28;20052;-66
2021/04/27 00:45:09;;;;;;;4.23;1.83;;;7.00;54.60;;;;;;5050043;28;20048;-66
2021/04/27 00:47:36;;;;;;;8.70;1.73;;;7.10;54.90;;;;;;5047935;28;20171;-66
2021/04/27 00:50:04;;;;;;;8.60;1.80;;;7.00;55.00;;;;;;5051703;28;20062;-66
2021/04/27 00:52:30;;;;;;;5.87;1.77;;;6.80;55.00;;;;;;5048891;28;20056;-66
2021/04/27 00:54:57;;;;;;;5.43;1.60;;;6.80;55.50;;;;;;5049355;28;20048;-66
2021/04/27 00:57:25;;;;;;;6.13;1.73;;;6.90;55.60;;;;;;5048339;28;20048;-66
2021/04/27 00:59:52;;;;;;;3.40;1.70;;;6.90;55.50;;;;;;5048196;28;20083;-66
2021/04/27 01:02:19;;;;;;;5.87;1.63;;;6.90;55.60;;;;;;5051086;28;21332;-66
2021/04/27 01:04:46;;;;;;;3.63;1.70;;;6.90;55.70;;;;;;5047754;28;20423;-66
2021/04/27 01:07:17;;;;;;;4.87;2.00;;;7.00;55.60;;;;;;5048915;28;20040;-66
2021/04/27 01:09:46;;;;;;;5.57;1.70;;;7.00;55.50;;;;;;5051008;28;20087;-66
2021/04/27 01:12:19;;;;;;;6.87;2.10;;;6.90;55.20;;;;;;5052856;28;20619;-66
2021/04/27 01:14:56;;;;;;;5.33;1.80;;;6.80;55.30;;;;;;5050386;28;20048;-66
2021/04/27 01:17:24;;;;;;;;;;;6.80;55.30;;;;;;5047409;28;20052;-66
2021/04/27 01:19:55;;;;;;;;;;;6.80;55.70;;;;;;5047569;28;19921;-65
2021/04/27 01:22:32;;;;;;;5.60;1.97;;;6.60;55.50;;;;;;5049176;28;21193;-66
2021/04/27 01:25:02;;;;;;;5.32;2.75;;;6.60;55.50;;;;;;5049642;28;20050;-66
2021/04/27 01:27:32;;;;;;;5.47;1.87;;;6.60;55.70;;;;;;5049722;28;20055;-66
2021/04/27 01:29:59;;;;;;;6.67;2.07;;;6.60;56.00;;;;;;5052013;28;20052;-66
2021/04/27 01:32:27;;;;;;;6.10;2.10;;;6.50;55.80;;;;;;5048515;28;20417;-66
2021/04/27 01:34:54;;;;;;;4.97;2.20;;;6.50;55.70;;;;;;5047606;28;20080;-66
2021/04/27 01:37:21;;;;;;;5.13;2.00;;;6.60;55.60;;;;;;5048859;28;20120;-65
2021/04/27 01:39:49;;;;;;;6.90;2.07;;;6.40;55.70;;;;;;5048652;28;20135;-65
2021/04/27 01:42:16;;;;;;;9.17;2.87;;;6.50;55.70;;;;;;5049140;28;20497;-66
2021/04/27 01:44:44;;;;;;;8.03;2.50;;;6.50;55.40;;;;;;5047584;28;20421;-65
2021/04/27 01:47:12;;;;;;;10.20;2.83;;;6.50;55.60;;;;;;5047922;28;20049;-65
2021/04/27 01:49:43;;;;;;;5.57;2.57;;;6.50;55.70;;;;;;5049655;28;20158;-66
2021/04/27 01:52:17;;;;;;;6.63;2.33;;;6.40;55.70;;;;;;5049055;28;20080;-66
2021/04/27 01:54:43;;;;;;;10.93;2.80;;;6.20;56.10;;;;;;5047200;28;20060;-65
2021/04/27 01:57:10;;;;;;;7.13;2.10;;;6.10;56.40;;;;;;5048214;28;20055;-66
2021/04/27 01:59:36;;;;;;;;;;;6.00;56.80;;;;;;5047831;28;20597;-65
2021/04/27 02:02:07;;;;;;;5.70;1.77;;;6.10;57.00;;;;;;5047040;28;19924;-66
2021/04/27 02:04:34;;;;;;;5.90;2.07;;;6.10;57.40;;;;;;5046689;28;20302;-66
2021/04/27 02:07:00;;;;;;;4.23;1.87;;;6.20;56.80;;;;;;5045237;28;20831;-66
2021/04/27 02:09:28;;;;;;;7.47;1.83;;;6.10;56.70;;;;;;5048295;28;20477;-66
2021/04/27 02:11:56;;;;;;;2.80;1.40;;;6.10;56.80;;;;;;5046156;28;20044;-65
2021/04/27 02:14:25;;;;;;;7.37;1.70;;;6.00;56.90;;;;;;5049164;28;20466;-65
2021/04/27 02:16:55;;;;;;;4.83;1.70;;;6.00;58.10;;;;;;5044507;28;20134;-65
2021/04/27 02:19:28;;;;;;;4.83;1.53;;;6.00;57.90;;;;;;5049365;28;20067;-65
2021/04/27 02:21:56;;;;;;;3.30;1.50;;;5.90;57.20;;;;;;5044194;28;20052;-66
2021/04/27 02:24:24;;;;;;;9.53;1.80;;;6.00;57.10;;;;;;5049036;28;20087;-65
2021/04/27 02:26:52;;;;;;;6.93;1.60;;;5.90;56.80;;;;;;5048795;28;20084;-65
2021/04/27 02:29:22;;;;;;;3.43;1.43;;;5.90;56.90;;;;;;5046063;28;20052;-66
2021/04/27 02:31:50;;;;;;;5.50;1.70;;;5.80;57.10;;;;;;5045503;28;20079;-65
2021/04/27 02:34:20;;;;;;;5.17;2.00;;;5.80;57.20;;;;;;5048000;28;20087;-65
2021/04/27 02:36:49;;;;;;;3.43;1.50;;;5.80;57.00;;;;;;5046178;28;20102;-66
2021/04/27 02:39:16;;;;;;;6.37;1.83;;;5.80;56.90;;;;;;5047536;28;20493;-65
2021/04/27 02:41:43;;;;;;;5.77;2.00;;;5.90;57.20;;;;;;5047501;28;20162;-65
2021/04/27 02:44:11;;;;;;;4.70;1.83;;;5.80;57.40;;;;;;5048474;28;20052;-65
2021/04/27 02:46:38;;;;;;;4.10;1.60;;;5.70;57.50;;;;;;5045668;28;20410;-66
2021/04/27 02:49:05;;;;;;;4.70;1.77;;;5.80;57.40;;;;;;5048148;28;20075;-66
2021/04/27 02:51:32;;;;;;;7.27;1.77;;;5.90;57.30;;;;;;5045186;28;20535;-66
2021/04/27 02:54:00;;;;;;;4.13;1.67;;;5.90;57.60;;;;;;5047807;28;20048;-66
2021/04/27 02:56:27;;;;;;;7.40;1.80;;;5.80;57.10;;;;;;5050063;28;20107;-65
2021/04/27 02:58:54;;;;;;;3.87;1.40;;;5.60;57.60;;;;;;5050889;28;20929;-65
2021/04/27 03:01:20;;;;;;;7.93;2.23;;;5.60;58.30;;;;;;5052130;28;20060;-66
2021/04/27 03:03:47;;;;;;;7.27;1.80;;;5.60;57.80;;;;;;5050451;28;20056;-65
2021/04/27 03:06:14;;;;;;;6.40;2.30;;;5.50;57.40;;;;;;5049284;28;20048;-66
2021/04/27 03:08:40;;;;;;;5.93;2.10;;;5.60;57.80;;;;;;5047721;28;20088;-65
2021/04/27 03:11:08;;;;;;;5.60;2.17;;;5.50;57.60;;;;;;5051788;28;20079;-65
2021/04/27 03:13:35;;;;;;;4.13;1.40;;;5.60;58.40;;;;;;5048485;28;20135;-65
2021/04/27 03:16:02;;;;;;;6.27;1.97;;;5.70;58.30;;;;;;5049873;28;20424;-66
2021/04/27 03:18:28;;;;;;;4.97;1.30;;;5.80;58.40;;;;;;5048807;28;20062;-65
2021/04/27 03:20:55;;;;;;;7.03;1.80;;;5.80;58.60;;;;;;5049172;28;20584;-65
2021/04/27 03:23:22;;;;;;;4.30;1.73;;;5.70;58.20;;;;;;5050130;28;20114;-66
2021/04/27 03:25:49;;;;;;;8.87;2.10;;;5.60;58.10;;;;;;5050545;28;20492;-66
2021/04/27 03:28:17;;;;;;;5.23;1.97;;;5.50;58.70;;;;;;5049367;28;20420;-65
2021/04/27 03:30:44;;;;;;;6.03;1.87;;;5.40;58.90;;;;;;5052795;28;20093;-65
2021/04/27 03:33:10;;;;;;;9.27;2.13;;;5.50;58.90;;;;;;5052850;28;20055;-65
2021/04/27 03:35:37;;;;;;;6.07;2.00;;;5.50;58.80;;;;;;5050507;28;20420;-66
2021/04/27 03:38:04;;;;;;;6.50;2.07;;;5.70;59.50;;;;;;5053867;28;20051;-65
2021/04/27 03:40:30;;;;;;;7.43;2.00;;;5.40;58.10;;;;;;5048957;28;20509;-65
2021/04/27 03:42:56;;;;;;;;;;;5.60;58.40;;;;;;5052191;28;20503;-65
2021/04/27 03:45:34;;;;;;;5.33;1.80;;;5.70;58.90;;;;;;5051409;28;20379;-66
2021/04/27 03:48:02;;;;;;;6.93;2.10;;;5.60;59.50;;;;;;5050448;28;20048;-63
2021/04/27 03:50:29;;;;;;;6.20;1.93;;;5.60;59.40;;;;;;5053317;28;20862;-63
2021/04/27 03:52:55;;;;;;;9.53;2.43;;;5.40;60.10;;;;;;5050490;28;20052;-64
2021/04/27 03:55:22;;;;;;;10.30;2.37;;;5.40;59.60;;;;;;5050585;28;20075;-63
2021/04/27 03:57:49;;;;;;;11.27;2.60;;;5.50;59.90;;;;;;5050258;28;20083;-64
2021/04/27 04:00:16;;;;;;;6.90;2.63;;;5.60;60.60;;;;;;5049070;28;20505;-66
2021/04/27 04:02:44;;;;;;;7.50;1.93;;;5.50;61.20;;;;;;5049234;28;20087;-66
2021/04/27 04:05:12;;;;;;;5.73;2.03;;;5.60;61.80;;;;;;5049265;28;20048;-66
2021/04/27 04:07:39;;;;;;;7.43;2.40;;;5.60;61.50;;;;;;5050045;28;20155;-66
2021/04/27 04:10:07;;;;;;;5.20;2.10;;;5.50;62.60;;;;;;5051555;28;20138;-67
2021/04/27 04:12:36;;;;;;;6.93;1.90;;;5.40;63.10;;;;;;5049736;28;20091;-66
2021/04/27 04:15:03;;;;;;;7.77;2.27;;;5.40;62.30;;;;;;5049011;28;20047;-66
2021/04/27 04:17:30;;;;;;;5.03;2.00;;;5.60;62.40;;;;;;5049106;28;20048;-66
2021/04/27 04:19:57;;;;;;;6.63;1.93;;;5.60;62.90;;;;;;5049594;28;20048;-66
2021/04/27 04:22:24;;;;;;;8.93;2.10;;;5.50;62.90;;;;;;5050327;28;20124;-66
2021/04/27 04:24:51;;;;;;;12.33;3.37;;;5.50;63.50;;;;;;5049521;28;20059;-66
2021/04/27 04:27:17;;;;;;;10.50;2.60;;;5.60;62.80;;;;;;5048667;28;20490;-66
2021/04/27 04:29:44;;;;;;;7.27;2.53;;;5.70;62.10;;;;;;5047212;28;20094;-66
2021/04/27 04:32:14;;;;;;;6.03;2.93;;;5.60;62.60;;;;;;5046929;28;20079;-66
2021/04/27 04:34:40;;;;;;;7.57;1.93;;;5.60;62.80;;;;;;5050101;28;20511;-66
2021/04/27 04:37:09;;;;;;;9.50;2.20;;;5.60;62.80;;;;;;5054110;28;20508;-66
2021/04/27 04:39:35;;;;;;;10.93;2.13;;;5.80;62.60;;;;;;5058241;28;20062;-66
2021/04/27 04:42:02;;;;;;;6.93;2.47;;;5.80;62.20;;;;;;5055878;28;20052;-66
2021/04/27 04:44:29;;;;;;;5.87;2.33;;;5.80;62.80;;;;;;5051062;28;20041;-66
2021/04/27 04:46:56;;;;;;;8.23;2.53;;;5.90;63.30;;;;;;5056270;28;20059;-66
2021/04/27 04:49:24;;;;;;;6.70;1.87;;;5.90;63.50;;;;;;5055587;28;20155;-66
2021/04/27 04:51:51;;;;;;;11.97;2.97;;;5.80;63.70;;;;;;5055488;28;20055;-66
2021/04/27 04:54:19;;;;;;;5.47;2.20;;;5.90;64.10;;;;;;5057706;28;20076;-66
2021/04/27 04:56:45;;;;;;;9.20;2.57;;;6.10;62.60;;;;;;5053874;28;20223;-66
2021/04/27 04:59:12;;;;;;;10.37;2.60;;;6.20;63.00;;;;;;5056120;28;20059;-66
2021/04/27 05:01:38;;;;;;;;;;;6.10;63.10;;;;;;5051834;28;20056;-66
2021/04/27 05:04:05;;;;;;;11.53;2.83;;;5.90;64.00;;;;;;5047969;28;19973;-66
2021/04/27 05:06:35;;;;;;;8.53;2.50;;;6.00;64.10;;;;;;5046014;28;20661;-66
2021/04/27 05:09:03;;;;;;;9.70;2.70;;;6.20;64.20;;;;;;5049092;28;20484;-66
2021/04/27 05:11:30;;;;;;;9.97;2.97;;;6.20;63.90;;;;;;5045655;28;20090;-66
2021/04/27 05:13:57;;;;;;;8.00;2.83;;;6.30;64.00;;;;;;5043652;28;20591;-66
2021/04/27 05:16:24;;;;;;;9.80;2.57;;;6.40;63.50;;;;;;5047129;28;20052;-67
2021/04/27 05:18:51;;;;;;;15.50;3.50;;;6.30;63.60;;;;;;5040302;28;20123;-67
2021/04/27 05:21:18;;;;;;;9.83;3.07;;;6.40;64.30;;;;;;5044373;28;20589;-66
2021/04/27 05:23:44;;;;;;;8.63;2.73;;;6.60;63.80;;;;;;5046428;28;20048;-66
2021/04/27 05:26:11;;;;;;;9.43;2.30;;;6.60;63.70;;;;;;5043119;28;20052;-66
2021/04/27 05:28:39;;;;;;;13.77;4.30;;;6.60;63.10;;;;;;5041029;28;20505;-66
2021/04/27 05:31:06;;;;;;;13.50;3.60;;;6.80;62.80;;;;;;5042675;28;20060;-66
2021/04/27 05:33:36;;;;;;;12.07;3.67;;;6.90;62.60;;;;;;5045011;28;20578;-65
2021/04/27 05:36:03;;;;;;;13.43;3.47;;;6.80;62.00;;;;;;5044497;28;20059;-66
2021/04/27 05:38:30;;;;;;;14.20;2.60;;;6.90;61.80;;;;;;5051982;28;20084;-65
2021/04/27 05:40:57;;;;;;;9.23;2.53;;;6.90;60.70;;;;;;5049924;28;20549;-66
2021/04/27 05:43:24;;;;;;;7.37;2.07;;;7.20;60.80;;;;;;5051676;28;20907;-66
2021/04/27 05:45:55;;;;;;;14.67;3.83;;;7.20;61.30;;;;;;5052512;28;20091;-66
2021/04/27 05:48:21;;;;;;;25.90;6.60;;;7.20;61.70;;;;;;5052374;28;20079;-66
2021/04/27 05:50:48;;;;;;;21.47;3.90;;;7.20;61.70;;;;;;5051922;28;20076;-67
2021/04/27 05:53:14;;;;;;;16.90;3.10;;;7.30;61.40;;;;;;5050602;28;20757;-66
2021/04/27 05:55:41;;;;;;;9.83;2.97;;;7.30;61.00;;;;;;5049531;28;20109;-66
2021/04/27 05:58:08;;;;;;;10.53;3.30;;;7.40;61.30;;;;;;5051052;28;20051;-67
2021/04/27 06:00:35;;;;;;;12.70;3.03;;;7.40;60.30;;;;;;5046736;28;20044;-66
2021/04/27 06:03:06;;;;;;;9.60;3.10;;;7.40;60.10;;;;;;5044845;28;20098;-66
2021/04/27 06:05:35;;;;;;;6.43;2.50;;;7.50;60.00;;;;;;5044357;28;20846;-66
2021/04/27 06:08:02;;;;;;;11.43;3.40;;;7.60;61.10;;;;;;5043848;28;20047;-67
2021/04/27 06:10:28;;;;;;;;;;;7.70;61.80;;;;;;5045685;28;20810;-67
2021/04/27 06:13:10;;;;;;;8.70;2.53;;;7.70;59.50;;;;;;5045865;28;19990;-66
2021/04/27 06:16:12;;;;;;;5.87;2.50;;;7.70;58.50;;;;;;5079993;28;20188;-66
2021/04/27 06:18:40;;;;;;;9.03;3.00;;;7.80;58.60;;;;;;5040652;28;20160;-68
2021/04/27 06:21:07;;;;;;;7.50;2.97;;;7.80;58.40;;;;;;5051173;28;20182;-68
2021/04/27 06:23:34;;;;;;;8.17;2.80;;;7.80;58.10;;;;;;5045722;28;20059;-68
2021/04/27 06:26:00;;;;;;;8.17;3.03;;;7.90;58.40;;;;;;5048577;28;20048;-68
2021/04/27 06:28:26;;;;;;;;;;;8.20;58.50;;;;;;5052223;28;20146;-68
2021/04/27 06:30:53;;;;;;;6.88;2.40;;;8.10;57.50;;;;;;5053882;28;19963;-67
2021/04/27 06:33:19;;;;;;;9.50;2.57;;;8.30;58.10;;;;;;5055456;28;20076;-67
2021/04/27 06:35:46;;;;;;;;;;;8.30;57.60;;;;;;5054810;28;20155;-67
2021/04/27 06:38:17;;;;;;;6.07;2.78;;;8.40;57.80;;;;;;5047915;28;19935;-67
2021/04/27 06:40:43;;;;;;;11.32;2.65;;;8.60;57.70;;;;;;5049902;28;20071;-67
2021/04/27 06:43:10;;;;;;;8.27;3.13;;;8.70;57.40;;;;;;5046046;28;20121;-67
2021/04/27 06:45:37;;;;;;;8.07;3.07;;;8.90;57.50;;;;;;5045787;28;20310;-68
2021/04/27 06:48:07;;;;;;;7.60;2.70;;;8.90;57.20;;;;;;5049865;28;20416;-68
2021/04/27 06:50:35;;;;;;;9.57;3.00;;;9.00;56.50;;;;;;5049529;28;20106;-69
2021/04/27 06:53:03;;;;;;;8.43;2.85;;;9.10;56.90;;;;;;5051925;28;20187;-67
2021/04/27 06:55:29;;;;;;;9.27;2.90;;;9.20;56.60;;;;;;5054140;28;20141;-70
2021/04/27 06:58:02;;;;;;;9.30;3.22;;;9.20;56.30;;;;;;5052183;28;20501;-69
2021/04/27 07:00:31;;;;;;;11.02;3.35;;;9.30;56.30;;;;;;5051538;28;20405;-70
2021/04/27 07:02:58;;;;;;;8.68;2.80;;;9.60;56.40;;;;;;5057198;28;20053;-70
2021/04/27 07:05:26;;;;;;;9.77;4.25;;;9.70;55.80;;;;;;5058966;28;20072;-69
2021/04/27 07:07:52;;;;;;;7.72;2.85;;;9.90;55.70;;;;;;5054295;28;20089;-70
2021/04/27 07:10:19;;;;;;;;;;;9.90;55.50;;;;;;5059519;28;20058;-69
2021/04/27 07:12:46;;;;;;;7.95;2.92;;;9.90;55.40;;;;;;5058012;28;19932;-67
2021/04/27 07:15:13;;;;;;;;;;;10.00;54.20;;;;;;5054065;28;20521;-68
2021/04/27 07:17:40;;;;;;;7.05;2.92;;;10.10;54.60;;;;;;5052107;28;19975;-69
2021/04/27 07:20:08;;;;;;;10.52;2.85;;;10.20;54.30;;;;;;5048626;28;20062;-69
2021/04/27 07:22:34;;;;;;;8.05;2.88;;;10.30;54.30;;;;;;5051020;28;20048;-70
2021/04/27 07:25:01;;;;;;;5.57;2.47;;;10.50;54.60;;;;;;5048465;28;20048;-68
2021/04/27 07:27:29;;;;;;;13.20;4.60;;;10.50;53.90;;;;;;5050716;28;20048;-68
2021/04/27 07:29:55;;;;;;;6.40;2.85;;;10.60;54.10;;;;;;5052378;28;20093;-67
2021/04/27 07:32:22;;;;;;;10.13;3.35;;;10.60;52.90;;;;;;5056193;28;20052;-68
2021/04/27 07:34:49;;;;;;;;;;;10.80;53.50;;;;;;5056444;28;20135;-66
2021/04/27 07:37:16;;;;;;;10.07;2.72;;;10.90;53.60;;;;;;5047236;28;20033;-67
2021/04/27 07:39:42;;;;;;;11.93;4.57;;;11.10;53.40;;;;;;5046854;28;20686;-67
2021/04/27 07:42:08;;;;;;;;;;;11.20;53.10;;;;;;5053408;28;20058;-65
2021/04/27 07:44:36;;;;;;;9.07;4.05;;;11.30;53.00;;;;;;5048347;28;19971;-65
2021/04/27 07:47:03;;;;;;;14.52;4.53;;;11.20;52.20;;;;;;5045825;28;20056;-66
2021/04/27 07:49:29;;;;;;;8.18;3.40;;;11.40;52.80;;;;;;5040131;28;20102;-66
2021/04/27 07:51:56;;;;;;;8.13;2.92;;;11.60;52.60;;;;;;5037230;28;20051;-66
2021/04/27 07:54:23;;;;;;;11.65;4.05;;;11.70;52.30;;;;;;5051312;28;20060;-66
2021/04/27 07:56:49;;;;;;;10.85;3.22;;;11.80;52.60;;;;;;5054657;28;20080;-65
2021/04/27 07:59:16;;;;;;;10.90;3.70;;;11.90;52.40;;;;;;5054662;28;20508;-66
2021/04/27 08:01:44;;;;;;;8.32;3.10;;;12.10;52.60;;;;;;5040496;28;20052;-69
2021/04/27 08:04:10;;;;;;;7.18;3.33;;;12.20;51.80;;;;;;5048575;28;20076;-69
2021/04/27 08:06:37;;;;;;;5.82;3.10;;;12.50;51.40;;;;;;5046603;28;20106;-69
2021/04/27 08:09:04;;;;;;;12.52;4.97;;;12.50;51.90;;;;;;5043171;28;20473;-69
2021/04/27 08:11:31;;;;;;;9.38;4.30;;;12.70;51.30;;;;;;5042706;28;20106;-66
2021/04/27 08:13:58;;;;;;;10.45;3.65;;;12.60;51.50;;;;;;5039285;28;20044;-68
2021/04/27 08:16:24;;;;;;;10.15;4.10;;;13.00;51.10;;;;;;5042576;28;20052;-67
2021/04/27 08:18:55;;;;;;;8.50;3.75;;;13.10;50.30;;;;;;5039171;28;20044;-66
2021/04/27 08:21:23;;;;;;;6.65;3.78;;;13.10;50.00;;;;;;5047785;28;20186;-66
2021/04/27 08:23:50;;;;;;;8.93;3.83;;;13.30;50.60;;;;;;5048407;28;20048;-66
2021/04/27 08:26:16;;;;;;;;;;;13.60;50.00;;;;;;5044172;28;20048;-63
2021/04/27 08:28:42;;;;;;;8.63;3.42;;;13.90;49.70;;;;;;5047448;28;19986;-63
2021/04/27 08:31:10;;;;;;;8.23;3.97;;;14.10;49.80;;;;;;5048501;28;20052;-66
2021/04/27 08:33:38;;;;;;;10.75;4.00;;;14.40;48.70;;;;;;5045339;28;20106;-65
2021/04/27 08:36:06;;;;;;;9.25;3.70;;;15.30;49.00;;;;;;5042101;28;20050;-65
2021/04/27 08:38:33;;;;;;;10.00;4.13;;;16.10;47.60;;;;;;5046250;28;20044;-64
2021/04/27 08:41:01;;;;;;;8.73;3.85;;;16.90;46.60;;;;;;5046440;28;20100;-66
2021/04/27 08:43:28;;;;;;;8.75;3.92;;;17.30;44.90;;;;;;5051165;28;20149;-66
2021/04/27 08:45:54;;;;;;;8.32;4.30;;;17.20;44.20;;;;;;5052830;28;20428;-66
2021/04/27 08:48:22;;;;;;;15.25;5.57;;;17.90;43.90;;;;;;5049541;28;20075;-67
2021/04/27 08:50:52;;;;;;;9.80;4.38;;;18.70;44.40;;;;;;5052172;28;20095;-68
2021/04/27 08:53:20;;;;;;;9.27;4.00;;;19.30;43.00;;;;;;5049641;28;20135;-67
2021/04/27 08:55:46;;;;;;;10.13;4.53;;;19.70;42.40;;;;;;5048996;28;20044;-68
2021/04/27 08:58:14;;;;;;;7.53;4.00;;;20.80;41.70;;;;;;5047239;28;20134;-66
2021/04/27 09:00:42;;;;;;;10.05;4.30;;;21.70;41.00;;;;;;5053047;28;20052;-66
2021/04/27 09:03:10;;;;;;;8.35;4.55;;;21.80;40.20;;;;;;5054333;28;20048;-67
2021/04/27 09:05:39;;;;;;;9.73;4.97;;;22.10;39.00;;;;;;5048257;28;20048;-68
2021/04/27 09:08:06;;;;;;;10.82;4.22;;;22.30;39.50;;;;;;5047245;28;20048;-68
2021/04/27 09:10:39;;;;;;;9.82;5.35;;;23.00;40.00;;;;;;5044683;28;20056;-68
2021/04/27 09:13:10;;;;;;;10.25;4.97;;;22.70;38.10;;;;;;5041633;28;20059;-67
2021/04/27 09:15:41;;;;;;;8.75;4.80;;;22.50;38.90;;;;;;5041916;28;20043;-68
2021/04/27 09:18:27;;;;;;;12.05;5.22;;;23.30;38.20;;;;;;5040744;28;20135;-68
2021/04/27 09:20:56;;;;;;;8.40;4.72;;;24.60;37.90;;;;;;5043844;28;20603;-68
2021/04/27 09:23:22;;;;;;;9.23;4.88;;;24.60;37.70;;;;;;5047087;28;21072;-69
2021/04/27 09:26:11;;;;;;;11.90;5.20;;;24.10;37.20;;;;;;5049357;28;20075;-68
2021/04/27 09:28:40;;;;;;;9.55;5.43;;;24.30;37.80;;;;;;5047738;28;20111;-68
2021/04/27 09:31:25;;;;;;;10.48;4.97;;;23.60;38.00;;;;;;5047988;28;20044;-68
2021/04/27 09:33:53;;;;;;;10.25;4.47;;;24.80;37.70;;;;;;5041658;28;20080;-68
2021/04/27 09:36:20;;;;;;;11.40;5.60;;;25.00;37.10;;;;;;5042722;28;20055;-68
2021/04/27 09:38:47;;;;;;;8.13;5.07;;;24.10;37.50;;;;;;5041443;28;20087;-68
2021/04/27 09:41:15;;;;;;;9.77;5.05;;;24.20;36.80;;;;;;5042313;28;20494;-68
2021/04/27 09:43:45;;;;;;;10.60;5.70;;;25.10;36.40;;;;;;5039655;28;20048;-68
2021/04/27 09:46:13;;;;;;;10.00;4.75;;;25.70;36.50;;;;;;5046885;28;20052;-70
2021/04/27 09:48:41;;;;;;;10.38;5.30;;;25.50;36.50;;;;;;5043396;28;20862;-68
2021/04/27 09:51:24;;;;;;;8.77;4.75;;;25.90;36.60;;;;;;5041887;28;20048;-68
2021/04/27 09:53:54;;;;;;;8.95;5.10;;;24.50;36.60;;;;;;5042384;28;20051;-69
2021/04/27 09:56:36;;;;;;;11.68;4.90;;;25.60;36.40;;;;;;5043574;28;20105;-68
2021/04/27 09:59:05;;;;;;;9.73;4.97;;;25.70;36.10;;;;;;5039599;28;20089;-69
2021/04/27 10:01:32;;;;;;;10.38;5.43;;;26.00;36.20;;;;;;5041426;28;20524;-68
2021/04/27 10:03:59;;;;;;;9.02;5.10;;;26.40;34.50;;;;;;5042134;28;20076;-68
2021/04/27 10:06:26;;;;;;;9.52;5.82;;;25.30;35.10;;;;;;5043715;28;20127;-68
2021/04/27 10:08:53;;;;;;;9.82;5.45;;;25.60;35.20;;;;;;5039771;28;20060;-68
2021/04/27 10:11:22;;;;;;;12.95;5.68;;;25.60;35.80;;;;;;5042226;28;20060;-68
2021/04/27 10:13:49;;;;;;;11.85;5.63;;;25.80;35.90;;;;;;5043103;28;20075;-68
2021/04/27 10:16:17;;;;;;;9.48;5.22;;;26.50;35.30;;;;;;5042595;28;20079;-68
2021/04/27 10:18:44;;;;;;;9.30;5.00;;;27.10;34.70;;;;;;5026508;28;20094;-67
2021/04/27 10:21:12;;;;;;;10.18;5.32;;;26.10;34.50;;;;;;5035101;28;20079;-68
2021/04/27 10:23:40;;;;;;;10.32;5.25;;;27.20;35.30;;;;;;5043814;28;20113;-68
2021/04/27 10:26:07;;;;;;;8.52;4.80;;;25.80;35.30;;;;;;5045390;28;20049;-68
2021/04/27 10:28:57;;;;;;;9.93;4.95;;;25.90;36.30;;;;;;5044172;28;20508;-68
2021/04/27 10:31:25;;;;;;;9.82;5.32;;;26.00;36.00;;;;;;5044369;28;20143;-68
2021/04/27 10:33:59;;;;;;;8.75;4.43;;;27.20;35.50;;;;;;5047310;28;20521;-70
2021/04/27 10:36:26;;;;;;;10.00;4.50;;;27.40;34.50;;;;;;5049156;28;20496;-70
2021/04/27 10:38:56;;;;;;;8.68;4.68;;;26.20;34.30;;;;;;5048730;28;20044;-70
2021/04/27 10:41:41;;;;;;;11.00;4.75;;;26.50;34.90;;;;;;5051119;28;20063;-70
2021/04/27 10:44:09;;;;;;;10.13;4.68;;;27.50;34.00;;;;;;5049408;28;20090;-70
2021/04/27 10:47:02;;;;;;;15.10;4.60;;;28.50;33.90;;;;;;5052114;28;20045;-70
2021/04/27 10:49:43;;;;;;;10.27;4.35;;;28.60;33.30;;;;;;5053413;28;20057;-70
2021/04/27 10:52:26;;;;;;;9.35;4.00;;;26.70;34.20;;;;;;5052280;28;20411;-70
2021/04/27 10:54:53;;;;;;;9.48;4.20;;;26.10;34.00;;;;;;5049329;28;20060;-70
2021/04/27 10:57:20;;;;;;;8.18;4.28;;;26.80;34.00;;;;;;5047483;28;20084;-70
2021/04/27 10:59:59;;;;;;;7.22;4.03;;;26.80;33.50;;;;;;5050119;28;20064;-70
2021/04/27 11:02:27;;;;;;;9.15;4.38;;;27.80;32.90;;;;;;5045232;28;20086;-70
2021/04/27 11:05:01;;;;;;;9.18;4.40;;;28.50;33.50;;;;;;5046602;28;20044;-70
2021/04/27 11:07:32;;;;;;;10.45;4.65;;;27.90;32.90;;;;;;5045021;28;20156;-70
2021/04/27 11:10:42;;;;;;;10.18;4.28;;;26.30;34.30;;;;;;5055746;28;20044;-70
2021/04/27 11:13:15;;;;;;;9.52;4.18;;;26.60;34.20;;;;;;5038051;28;20058;-70
2021/04/27 11:15:45;;;;;;;8.77;4.30;;;27.80;33.20;;;;;;5047085;28;20121;-70
2021/04/27 11:18:17;;;;;;;8.40;4.70;;;28.70;33.20;;;;;;5063124;28;20527;-70
2021/04/27 11:20:56;;;;;;;8.40;4.38;;;27.80;33.40;;;;;;5062189;28;20506;-70
2021/04/27 11:23:41;;;;;;;6.78;3.60;;;27.40;33.60;;;;;;5068707;28;20805;-70
2021/04/27 11:26:53;;;;;;;8.52;4.38;;;28.10;32.90;;;;;;5068794;28;20134;-70
2021/04/27 11:29:28;;;;;;;8.60;4.05;;;25.80;33.80;;;;;;5067825;28;20233;-70
2021/04/27 11:31:59;;;;;;;9.90;4.32;;;25.20;35.10;;;;;;5065140;28;20157;-70
2021/04/27 11:34:26;;;;;;;6.97;4.20;;;26.50;34.30;;;;;;5059692;28;20060;-70
2021/04/27 11:36:53;;;;;;;8.95;4.65;;;26.80;33.50;;;;;;5060276;28;20057;-70
2021/04/27 11:39:22;;;;;;;7.25;4.05;;;27.10;34.10;;;;;;5060962;28;20071;-70
2021/04/27 11:41:50;;;;;;;8.00;4.25;;;26.80;33.00;;;;;;5062031;28;20053;-70
2021/04/27 11:44:18;;;;;;;10.55;4.35;;;27.30;33.60;;;;;;5062648;28;20602;-70
2021/04/27 11:47:00;;;;;;;12.88;4.93;;;27.80;33.30;;;;;;5062839;28;20044;-70
2021/04/27 11:50:01;;;;;;;7.80;4.40;;;27.70;33.90;;;;;;5060809;28;20119;-71
2021/04/27 11:52:44;;;;;;;10.13;4.60;;;25.80;34.10;;;;;;5018270;28;20065;-70
2021/04/27 11:55:20;;;;;;;9.98;4.65;;;25.00;34.30;;;;;;5018543;28;20063;-70
2021/04/27 11:57:48;;;;;;;;;;;24.40;34.90;;;;;;5044143;28;20520;-70
2021/04/27 12:00:15;;;;;;;8.93;3.85;;;24.50;35.40;;;;;;5065998;28;19924;-70
2021/04/27 12:02:43;;;;;;;9.15;4.78;;;24.40;35.30;;;;;;5063706;28;20084;-70
2021/04/27 12:05:10;;;;;;;9.57;4.57;;;24.90;34.90;;;;;;5062798;28;20043;-70
2021/04/27 12:07:37;;;;;;;7.60;3.72;;;24.20;35.00;;;;;;5063243;28;20067;-70
2021/04/27 12:10:05;;;;;;;10.60;4.20;;;24.60;36.80;;;;;;5062999;28;20048;-70
2021/04/27 12:12:32;;;;;;;9.02;4.38;;;25.40;35.60;;;;;;5061900;28;20044;-70
2021/04/27 12:15:00;;;;;;;10.00;3.70;;;25.30;35.00;;;;;;5059977;28;20086;-70
2021/04/27 12:17:29;;;;;;;9.80;4.05;;;25.60;35.40;;;;;;5063703;28;20131;-70
2021/04/27 12:20:09;;;;;;;16.10;4.63;;;26.30;34.80;;;;;;5060992;28;20489;-70
2021/04/27 12:22:44;;;;;;;10.07;4.55;;;27.40;34.80;;;;;;5062380;28;20047;-70
2021/04/27 12:25:16;;;;;;;10.00;4.18;;;26.20;33.30;;;;;;5061352;28;20041;-70
2021/04/27 12:27:42;;;;;;;7.18;3.90;;;25.20;35.00;;;;;;5054845;28;20541;-70
2021/04/27 12:30:12;;;;;;;10.70;4.30;;;25.60;34.20;;;;;;5061393;28;20301;-71
2021/04/27 12:32:41;;;;;;;18.45;4.32;;;26.40;34.40;;;;;;5062753;28;20316;-70
2021/04/27 12:35:12;;;;;;;7.07;4.05;;;25.60;34.00;;;;;;5059282;28;20056;-70
2021/04/27 12:37:42;;;;;;;7.50;4.00;;;24.00;35.20;;;;;;5060900;28;20108;-71
2021/04/27 12:40:18;;;;;;;6.68;4.10;;;23.90;34.80;;;;;;5062630;28;20563;-70
2021/04/27 12:42:46;;;;;;;6.43;3.85;;;24.40;34.20;;;;;;5061414;28;20417;-70
2021/04/27 12:45:13;;;;;;;8.55;3.45;;;25.40;34.10;;;;;;5060965;28;20044;-70
2021/04/27 12:47:40;;;;;;;9.48;3.28;;;25.60;35.20;;;;;;5061236;28;20058;-71
2021/04/27 12:50:10;;;;;;;10.48;3.80;;;26.90;35.00;;;;;;5059187;28;20059;-70
2021/04/27 12:52:40;;;;;;;7.75;3.70;;;26.80;33.60;;;;;;5059693;28;20471;-70
2021/04/27 12:55:10;;;;;;;6.57;3.35;;;27.00;33.60;;;;;;5058842;28;20505;-70
2021/04/27 12:57:37;;;;;;;8.85;4.20;;;25.80;33.90;;;;;;5058051;28;20135;-70
2021/04/27 13:00:08;;;;;;;6.32;3.33;;;24.20;34.10;;;;;;5063315;28;20116;-70
2021/04/27 13:02:34;;;;;;;11.02;3.80;;;24.40;34.70;;;;;;5059860;28;20071;-70